createdAt,value
2019-06-10T00:00:35.089Z,989.78
2019-06-10T00:01:34.978Z,989.74
2019-06-10T00:02:34.905Z,989.69
2019-06-10T00:03:34.834Z,989.64
2019-06-10T00:04:34.761Z,989.56
2019-06-10T00:05:34.690Z,989.57
2019-06-10T00:06:34.617Z,989.58
2019-06-10T00:07:34.543Z,989.55
2019-06-10T00:08:34.471Z,989.55
2019-06-10T00:09:34.398Z,989.57
2019-06-10T00:10:34.327Z,989.61
2019-06-10T00:11:34.254Z,989.64
2019-06-10T00:12:34.181Z,989.64
2019-06-10T00:13:34.107Z,989.64
2019-06-10T00:14:34.036Z,989.66
2019-06-10T00:15:33.965Z,989.70
2019-06-10T00:16:33.890Z,989.74
2019-06-10T00:17:33.818Z,989.73
2019-06-10T00:18:41.522Z,989.75
2019-06-10T00:19:33.673Z,989.74
2019-06-10T00:20:33.601Z,989.75
2019-06-10T00:21:33.529Z,989.68
2019-06-10T00:22:33.456Z,989.68
2019-06-10T00:23:33.385Z,989.67
2019-06-10T00:24:33.312Z,989.71
2019-06-10T00:25:33.236Z,989.74
2019-06-10T00:26:33.165Z,989.74
2019-06-10T00:27:33.093Z,989.74
2019-06-10T00:28:33.021Z,989.75
2019-06-10T00:29:32.948Z,989.74
2019-06-10T00:30:32.875Z,989.74
2019-06-10T00:31:32.807Z,989.73
2019-06-10T00:32:32.731Z,989.70
2019-06-10T00:33:32.667Z,989.68
2019-06-10T00:34:35.020Z,989.66
2019-06-10T00:35:32.514Z,989.58
2019-06-10T00:36:32.441Z,989.59
2019-06-10T00:37:32.367Z,989.56
2019-06-10T00:38:32.298Z,989.58
2019-06-10T00:39:32.222Z,989.58
2019-06-10T00:40:32.152Z,989.56
2019-06-10T00:41:32.081Z,989.47
2019-06-10T00:42:32.006Z,989.52
2019-06-10T00:43:31.932Z,989.53
2019-06-10T00:44:31.861Z,989.56
2019-06-10T00:45:31.788Z,989.50
2019-06-10T00:46:31.789Z,989.43
2019-06-10T00:47:31.643Z,989.44
2019-06-10T00:48:32.281Z,989.40
2019-06-10T00:49:31.743Z,989.41
2019-06-10T00:50:31.424Z,989.41
2019-06-10T00:51:31.476Z,989.43
2019-06-10T00:52:31.283Z,989.40
2019-06-10T00:53:31.642Z,989.38
2019-06-10T00:54:31.353Z,989.34
2019-06-10T00:55:31.482Z,989.29
2019-06-10T00:56:30.991Z,989.29
2019-06-10T00:57:31.449Z,989.29
2019-06-10T00:58:31.937Z,989.26
2019-06-10T00:59:31.233Z,989.26
2019-06-10T01:00:31.760Z,989.29
2019-06-10T01:01:31.302Z,989.32
2019-06-10T01:02:31.844Z,989.32
2019-06-10T01:03:31.326Z,989.36
2019-06-10T01:04:31.913Z,989.39
2019-06-10T01:05:31.277Z,989.41
2019-06-10T01:06:31.797Z,989.39
2019-06-10T01:07:31.141Z,989.34
2019-06-10T01:08:31.603Z,989.38
2019-06-10T01:09:31.072Z,989.42
2019-06-10T01:10:31.628Z,989.50
2019-06-10T01:11:31.057Z,989.54
2019-06-10T01:12:31.605Z,989.56
2019-06-10T01:13:30.937Z,989.53
2019-06-10T01:14:31.879Z,989.51
2019-06-10T01:15:31.149Z,989.51
2019-06-10T01:16:31.648Z,989.50
2019-06-10T01:17:31.096Z,989.52
2019-06-10T01:18:37.434Z,989.52
2019-06-10T01:19:31.079Z,989.50
2019-06-10T01:20:29.245Z,989.55
2019-06-10T01:21:31.176Z,989.56
2019-06-10T01:22:31.464Z,989.59
2019-06-10T01:23:30.927Z,989.64
2019-06-10T01:24:31.282Z,989.64
2019-06-10T01:25:30.988Z,989.63
2019-06-10T01:26:30.835Z,989.64
2019-06-10T01:27:28.736Z,989.65
2019-06-10T01:28:31.197Z,989.69
2019-06-10T01:29:28.589Z,989.64
2019-06-10T01:30:31.079Z,989.66
2019-06-10T01:31:28.444Z,989.64
2019-06-10T01:32:31.025Z,989.64
2019-06-10T01:33:28.298Z,989.59
2019-06-10T01:34:28.226Z,989.54
2019-06-10T01:35:30.479Z,989.49
2019-06-10T01:36:28.080Z,989.49
2019-06-10T01:37:28.007Z,989.54
2019-06-10T01:38:27.934Z,989.51
2019-06-10T01:39:27.861Z,989.47
2019-06-10T01:40:27.789Z,989.40
2019-06-10T01:41:27.717Z,989.42
2019-06-10T01:42:27.644Z,989.43
2019-06-10T01:43:27.571Z,989.48
2019-06-10T01:44:27.499Z,989.44
2019-06-10T01:45:27.425Z,989.40
2019-06-10T01:46:27.354Z,989.37
2019-06-10T01:47:27.281Z,989.40
2019-06-10T01:48:40.603Z,989.39
2019-06-10T01:49:27.135Z,989.41
2019-06-10T01:50:27.062Z,989.34
2019-06-10T01:51:26.990Z,989.38
2019-06-10T01:52:26.918Z,989.40
2019-06-10T01:53:26.844Z,989.41
2019-06-10T01:54:26.771Z,989.40
2019-06-10T01:55:26.699Z,989.39
2019-06-10T01:56:26.626Z,989.37
2019-06-10T01:57:26.555Z,989.40
2019-06-10T01:58:26.481Z,989.45
2019-06-10T01:59:26.408Z,989.41
2019-06-10T02:00:26.335Z,989.40
2019-06-10T02:01:26.261Z,989.37
2019-06-10T02:02:26.190Z,989.38
2019-06-10T02:03:26.135Z,989.36
2019-06-10T02:04:26.047Z,989.35
2019-06-10T02:05:25.969Z,989.31
2019-06-10T02:06:26.086Z,989.31
2019-06-10T02:07:25.824Z,989.28
2019-06-10T02:08:25.752Z,989.21
2019-06-10T02:09:25.700Z,989.22
2019-06-10T02:10:25.606Z,989.12
2019-06-10T02:11:25.532Z,989.09
2019-06-10T02:12:25.461Z,989.04
2019-06-10T02:13:25.388Z,989.02
2019-06-10T02:14:25.324Z,989.03
2019-06-10T02:15:25.242Z,988.99
2019-06-10T02:16:25.168Z,989.02
2019-06-10T02:17:25.094Z,989.07
2019-06-10T02:18:25.022Z,989.07
2019-06-10T02:19:24.950Z,989.07
2019-06-10T02:20:24.878Z,989.04
2019-06-10T02:21:24.805Z,989.03
2019-06-10T02:22:24.737Z,989.06
2019-06-10T02:23:24.657Z,989.02
2019-06-10T02:24:24.687Z,988.97
2019-06-10T02:25:24.516Z,988.99
2019-06-10T02:26:24.438Z,988.99
2019-06-10T02:27:24.366Z,989.00
2019-06-10T02:28:24.296Z,989.06
2019-06-10T02:29:24.221Z,989.05
2019-06-10T02:30:39.418Z,989.07
2019-06-10T02:31:30.122Z,989.04
2019-06-10T02:32:31.856Z,989.05
2019-06-10T02:33:30.662Z,989.07
2019-06-10T02:34:27.316Z,989.08
2019-06-10T02:35:30.515Z,989.13
2019-06-10T02:36:31.135Z,989.15
2019-06-10T02:37:31.329Z,989.20
2019-06-10T02:38:33.213Z,989.24
2019-06-10T02:39:32.225Z,989.20
2019-06-10T02:40:31.780Z,989.21
2019-06-10T02:41:31.196Z,989.26
2019-06-10T02:42:30.235Z,989.23
2019-06-10T02:43:31.712Z,989.20
2019-06-10T02:44:32.251Z,989.21
2019-06-10T02:45:32.034Z,989.22
2019-06-10T02:46:30.646Z,989.21
2019-06-10T02:47:26.378Z,989.13
2019-06-10T02:48:30.102Z,989.06
2019-06-10T02:49:45.541Z,989.04
2019-06-10T02:50:29.316Z,988.99
2019-06-10T02:51:28.645Z,989.00
2019-06-10T02:52:31.531Z,988.98
2019-06-10T02:53:28.481Z,988.93
2019-06-10T02:54:28.785Z,988.94
2019-06-10T02:55:28.805Z,988.91
2019-06-10T02:56:29.889Z,988.92
2019-06-10T02:57:29.584Z,988.91
2019-06-10T02:58:30.399Z,988.96
2019-06-10T02:59:28.903Z,988.99
2019-06-10T03:00:34.204Z,989.05
2019-06-10T03:01:28.394Z,989.09
2019-06-10T03:02:23.754Z,989.08
2019-06-10T03:03:33.265Z,989.08
2019-06-10T03:04:26.734Z,989.04
2019-06-10T03:05:26.829Z,989.06
2019-06-10T03:06:29.870Z,989.10
2019-06-10T03:07:26.818Z,989.23
2019-06-10T03:08:26.627Z,989.21
2019-06-10T03:09:26.410Z,989.24
2019-06-10T03:10:26.754Z,989.24
2019-06-10T03:11:27.376Z,989.25
2019-06-10T03:12:24.001Z,989.21
2019-06-10T03:13:22.789Z,989.16
2019-06-10T03:14:22.651Z,989.19
2019-06-10T03:15:24.533Z,989.16
2019-06-10T03:16:23.062Z,989.20
2019-06-10T03:17:23.193Z,989.16
2019-06-10T03:18:21.744Z,989.20
2019-06-10T03:19:39.742Z,989.12
2019-06-10T03:20:23.057Z,989.09
2019-06-10T03:21:23.065Z,989.12
2019-06-10T03:22:22.584Z,989.08
2019-06-10T03:23:22.711Z,989.04
2019-06-10T03:24:22.415Z,989.11
2019-06-10T03:25:22.598Z,989.06
2019-06-10T03:26:21.896Z,989.10
2019-06-10T03:27:21.089Z,989.06
2019-06-10T03:28:19.918Z,989.00
2019-06-10T03:29:21.228Z,989.03
2019-06-10T03:30:22.042Z,989.04
2019-06-10T03:31:22.043Z,989.12
2019-06-10T03:32:21.970Z,989.04
2019-06-10T03:33:20.837Z,989.05
2019-06-10T03:34:21.640Z,989.05
2019-06-10T03:35:19.413Z,989.03
2019-06-10T03:36:20.151Z,989.03
2019-06-10T03:37:20.921Z,988.98
2019-06-10T03:38:20.901Z,989.02
2019-06-10T03:39:19.114Z,988.95
2019-06-10T03:40:19.040Z,988.97
2019-06-10T03:41:18.969Z,988.91
2019-06-10T03:42:18.892Z,988.85
2019-06-10T03:43:18.919Z,988.91
2019-06-10T03:44:18.937Z,988.90
2019-06-10T03:45:19.147Z,988.88
2019-06-10T03:46:19.038Z,988.87
2019-06-10T03:47:19.089Z,988.88
2019-06-10T03:48:19.117Z,988.83
2019-06-10T03:49:19.153Z,988.81
2019-06-10T03:50:19.227Z,988.78
2019-06-10T03:51:19.446Z,988.73
2019-06-10T03:52:19.313Z,988.72
2019-06-10T03:54:12.886Z,988.64
2019-06-10T03:55:12.249Z,988.63
2019-06-10T03:56:12.615Z,988.66
2019-06-10T03:58:57.838Z,988.55
2019-06-10T03:59:57.764Z,988.61
2019-06-10T04:00:57.693Z,988.66
2019-06-10T04:01:57.617Z,988.66
2019-06-10T04:02:57.877Z,988.68
2019-06-10T04:03:57.471Z,988.68
2019-06-10T04:04:57.398Z,988.52
2019-06-10T04:05:57.324Z,988.45
2019-06-10T04:06:57.252Z,988.40
2019-06-10T04:07:57.178Z,988.43
2019-06-10T04:08:57.105Z,988.41
2019-06-10T04:09:57.031Z,988.43
2019-06-10T04:10:56.960Z,988.38
2019-06-10T04:11:56.887Z,988.38
2019-06-10T04:12:56.812Z,988.35
2019-06-10T04:13:56.739Z,988.39
2019-06-10T04:14:56.664Z,988.39
2019-06-10T04:15:56.593Z,988.39
2019-06-10T04:16:56.721Z,988.37
2019-06-10T04:17:56.448Z,988.38
2019-06-10T04:18:56.474Z,988.39
2019-06-10T04:20:08.179Z,988.34
2019-06-10T04:20:56.227Z,988.37
2019-06-10T04:21:56.493Z,988.28
2019-06-10T04:22:56.107Z,988.31
2019-06-10T04:24:55.936Z,988.26
2019-06-10T04:25:55.861Z,988.20
2019-06-10T04:26:55.795Z,988.13
2019-06-10T04:27:55.716Z,988.09
2019-06-10T04:28:55.642Z,987.99
2019-06-10T04:29:55.670Z,987.90
2019-06-10T04:30:55.497Z,987.87
2019-06-10T04:31:55.424Z,987.79
2019-06-10T04:32:55.350Z,987.78
2019-06-10T04:33:55.307Z,987.79
2019-06-10T04:34:55.211Z,987.78
2019-06-10T04:35:55.170Z,987.77
2019-06-10T04:36:55.058Z,987.77
2019-06-10T04:37:55.215Z,987.74
2019-06-10T04:38:54.912Z,987.77
2019-06-10T04:39:57.540Z,987.86
2019-06-10T04:40:54.767Z,987.95
2019-06-10T04:41:54.723Z,987.96
2019-06-10T04:42:54.626Z,987.98
2019-06-10T04:43:54.548Z,988.01
2019-06-10T04:44:54.475Z,988.01
2019-06-10T04:45:54.403Z,988.01
2019-06-10T04:46:54.331Z,988.05
2019-06-10T04:47:54.258Z,988.01
2019-06-10T04:48:54.186Z,988.00
2019-06-10T04:49:54.113Z,988.05
2019-06-10T04:50:54.139Z,988.04
2019-06-10T04:51:53.969Z,988.04
2019-06-10T04:52:53.895Z,988.05
2019-06-10T04:53:53.823Z,988.03
2019-06-10T04:54:53.750Z,988.00
2019-06-10T04:55:53.781Z,987.98
2019-06-10T04:56:53.606Z,988.01
2019-06-10T04:57:53.534Z,987.98
2019-06-10T04:58:53.462Z,988.04
2019-06-10T04:59:53.398Z,988.05
2019-06-10T05:00:53.415Z,988.10
2019-06-10T05:01:53.243Z,988.18
2019-06-10T05:02:53.172Z,988.26
2019-06-10T05:03:53.099Z,988.20
2019-06-10T05:04:53.283Z,988.24
2019-06-10T05:05:52.953Z,988.28
2019-06-10T05:06:52.881Z,988.31
2019-06-10T05:07:52.813Z,988.33
2019-06-10T05:08:53.743Z,988.35
2019-06-10T05:09:52.665Z,988.34
2019-06-10T05:10:52.992Z,988.34
2019-06-10T05:11:52.520Z,988.36
2019-06-10T05:12:52.682Z,988.36
2019-06-10T05:13:53.309Z,988.36
2019-06-10T05:14:52.734Z,988.38
2019-06-10T05:15:52.756Z,988.38
2019-06-10T05:16:54.346Z,988.39
2019-06-10T05:17:52.678Z,988.37
2019-06-10T05:18:54.725Z,988.39
2019-06-10T05:19:53.061Z,988.43
2019-06-10T05:20:58.242Z,988.44
2019-06-10T05:21:52.451Z,988.47
2019-06-10T05:22:52.808Z,988.51
2019-06-10T05:23:52.188Z,988.51
2019-06-10T05:24:52.752Z,988.56
2019-06-10T05:25:52.658Z,988.51
2019-06-10T05:26:52.659Z,988.57
2019-06-10T05:27:52.314Z,988.57
2019-06-10T05:28:52.392Z,988.63
2019-06-10T05:29:52.714Z,988.68
2019-06-10T05:30:53.182Z,988.76
2019-06-10T05:31:52.288Z,988.78
2019-06-10T05:32:52.366Z,988.86
2019-06-10T05:33:52.965Z,988.88
2019-06-10T05:34:52.826Z,988.98
2019-06-10T05:35:52.858Z,989.01
2019-06-10T05:36:52.569Z,988.91
2019-06-10T05:37:52.742Z,988.94
2019-06-10T05:38:52.662Z,988.93
2019-06-10T05:39:52.560Z,988.93
2019-06-10T05:40:52.124Z,988.96
2019-06-10T05:41:52.947Z,989.00
2019-06-10T05:42:50.298Z,989.00
2019-06-10T05:43:52.369Z,989.05
2019-06-10T05:44:52.290Z,989.08
2019-06-10T05:45:50.072Z,989.11
2019-06-10T05:46:52.640Z,989.10
2019-06-10T05:47:49.933Z,989.12
2019-06-10T05:48:49.858Z,989.13
2019-06-10T05:49:49.785Z,989.15
2019-06-10T05:51:00.233Z,989.16
2019-06-10T05:51:49.642Z,989.17
2019-06-10T05:52:51.927Z,989.10
2019-06-10T05:53:49.500Z,989.13
2019-06-10T05:54:49.427Z,989.11
2019-06-10T05:55:49.356Z,989.04
2019-06-10T05:56:49.389Z,989.02
2019-06-10T05:57:49.214Z,988.97
2019-06-10T05:58:49.145Z,988.95
2019-06-10T05:59:49.070Z,988.94
2019-06-10T06:00:48.997Z,988.93
2019-06-10T06:01:48.927Z,988.95
2019-06-10T06:02:48.856Z,988.95
2019-06-10T06:03:48.783Z,988.97
2019-06-10T06:04:48.713Z,989.02
2019-06-10T06:05:48.641Z,989.13
2019-06-10T06:06:48.570Z,989.07
2019-06-10T06:08:01.398Z,989.06
2019-06-10T06:08:48.427Z,989.16
2019-06-10T06:09:48.356Z,989.15
2019-06-10T06:10:48.285Z,989.19
2019-06-10T06:11:48.217Z,989.19
2019-06-10T06:12:48.143Z,989.19
2019-06-10T06:13:48.073Z,989.19
2019-06-10T06:14:48.002Z,989.19
2019-06-10T06:15:47.929Z,989.18
2019-06-10T06:16:47.857Z,989.12
2019-06-10T06:18:03.254Z,989.17
2019-06-10T06:18:47.818Z,989.11
2019-06-10T06:19:47.645Z,989.08
2019-06-10T06:20:47.576Z,989.11
2019-06-10T06:21:47.980Z,989.09
2019-06-10T06:22:47.438Z,989.08
2019-06-10T06:23:47.361Z,989.08
2019-06-10T06:24:47.288Z,989.07
2019-06-10T06:25:47.244Z,989.04
2019-06-10T06:26:47.148Z,989.00
2019-06-10T06:27:47.074Z,989.03
2019-06-10T06:28:47.003Z,989.02
2019-06-10T06:29:46.958Z,989.03
2019-06-10T06:30:46.863Z,989.02
2019-06-10T06:31:46.791Z,989.02
2019-06-10T06:32:46.718Z,989.03
2019-06-10T06:33:46.648Z,989.03
2019-06-10T06:34:46.577Z,988.97
2019-06-10T06:35:46.825Z,988.94
2019-06-10T06:36:46.441Z,988.96
2019-06-10T06:37:46.362Z,988.94
2019-06-10T06:38:46.291Z,988.98
2019-06-10T06:39:46.220Z,988.98
2019-06-10T06:40:46.149Z,988.99
2019-06-10T06:41:46.077Z,988.97
2019-06-10T06:42:46.007Z,988.97
2019-06-10T06:43:45.941Z,988.98
2019-06-10T06:44:45.865Z,989.02
2019-06-10T06:45:45.798Z,989.04
2019-06-10T06:46:45.722Z,989.10
2019-06-10T06:47:45.653Z,989.16
2019-06-10T06:48:45.581Z,989.12
2019-06-10T06:49:45.508Z,989.05
2019-06-10T06:51:00.306Z,988.97
2019-06-10T06:51:54.798Z,988.93
2019-06-10T06:53:15.599Z,988.88
2019-06-10T06:53:52.140Z,988.90
2019-06-10T06:54:45.153Z,988.88
2019-06-10T06:55:45.085Z,988.85
2019-06-10T06:56:45.011Z,988.83
2019-06-10T06:57:44.942Z,988.85
2019-06-10T06:58:44.870Z,988.83
2019-06-10T06:59:44.800Z,988.78
2019-06-10T07:01:00.666Z,988.78
2019-06-10T07:01:44.716Z,988.73
2019-06-10T07:02:44.587Z,988.75
2019-06-10T07:03:45.261Z,988.74
2019-06-10T07:04:44.444Z,988.74
2019-06-10T07:05:44.374Z,988.80
2019-06-10T07:06:44.304Z,988.79
2019-06-10T07:07:44.235Z,988.81
2019-06-10T07:08:57.756Z,988.81
2019-06-10T07:09:44.092Z,988.80
2019-06-10T07:10:44.020Z,988.83
2019-06-10T07:11:45.160Z,988.87
2019-06-10T07:12:44.108Z,988.86
2019-06-10T07:13:45.832Z,988.89
2019-06-10T07:14:44.978Z,988.81
2019-06-10T07:15:46.862Z,988.85
2019-06-10T07:16:46.189Z,988.89
2019-06-10T07:17:45.701Z,988.98
2019-06-10T07:18:49.932Z,989.01
2019-06-10T07:19:45.741Z,989.06
2019-06-10T07:20:45.652Z,989.11
2019-06-10T07:22:02.294Z,989.13
2019-06-10T07:22:46.589Z,989.13
2019-06-10T07:23:46.645Z,989.08
2019-06-10T07:24:47.335Z,989.02
2019-06-10T07:25:47.137Z,988.99
2019-06-10T07:26:50.579Z,989.02
2019-06-10T07:27:45.185Z,988.88
2019-06-10T07:28:47.035Z,988.94
2019-06-10T07:29:46.911Z,988.92
2019-06-10T07:30:50.996Z,988.94
2019-06-10T07:31:45.979Z,988.92
2019-06-10T07:32:47.112Z,988.95
2019-06-10T07:33:46.781Z,989.01
2019-06-10T07:34:46.783Z,989.04
2019-06-10T07:35:45.041Z,989.05
2019-06-10T07:36:44.019Z,989.11
2019-06-10T07:37:44.450Z,989.13
2019-06-10T07:38:47.974Z,989.08
2019-06-10T07:39:45.158Z,989.10
2019-06-10T07:40:45.210Z,989.04
2019-06-10T07:41:45.170Z,988.97
2019-06-10T07:42:45.011Z,988.98
2019-06-10T07:43:47.557Z,988.93
2019-06-10T07:44:44.005Z,988.90
2019-06-10T07:45:45.869Z,988.89
2019-06-10T07:46:43.764Z,988.82
2019-06-10T07:47:43.778Z,988.81
2019-06-10T07:48:46.273Z,988.80
2019-06-10T07:49:43.877Z,988.74
2019-06-10T07:50:44.211Z,988.87
2019-06-10T07:51:43.812Z,988.83
2019-06-10T07:52:45.645Z,988.85
2019-06-10T07:53:44.615Z,988.85
2019-06-10T07:54:43.726Z,988.86
2019-06-10T07:55:42.094Z,988.90
2019-06-10T07:56:47.549Z,988.88
2019-06-10T07:57:43.970Z,988.87
2019-06-10T07:58:44.510Z,988.87
2019-06-10T07:59:42.923Z,988.82
2019-06-10T08:00:45.675Z,988.81
2019-06-10T08:01:45.949Z,988.81
2019-06-10T08:02:42.805Z,988.81
2019-06-10T08:03:40.278Z,988.72
2019-06-10T08:04:42.924Z,988.75
2019-06-10T08:05:40.811Z,988.74
2019-06-10T08:06:42.849Z,988.73
2019-06-10T08:07:41.498Z,988.71
2019-06-10T08:08:42.295Z,988.68
2019-06-10T08:09:41.673Z,988.65
2019-06-10T08:10:42.763Z,988.65
2019-06-10T08:11:39.737Z,988.57
2019-06-10T08:12:39.642Z,988.64
2019-06-10T08:13:39.571Z,988.65
2019-06-10T08:14:39.594Z,988.64
2019-06-10T08:15:39.730Z,988.63
2019-06-10T08:16:39.883Z,988.66
2019-06-10T08:17:40.425Z,988.72
2019-06-10T08:19:03.422Z,988.70
2019-06-10T08:19:43.085Z,988.72
2019-06-10T08:20:39.200Z,988.74
2019-06-10T08:21:40.623Z,988.74
2019-06-10T08:22:44.303Z,988.72
2019-06-10T08:23:40.195Z,988.71
2019-06-10T08:24:39.387Z,988.60
2019-06-10T08:25:38.729Z,988.62
2019-06-10T08:26:39.396Z,988.60
2019-06-10T08:27:38.610Z,988.67
2019-06-10T08:28:39.635Z,988.60
2019-06-10T08:29:38.686Z,988.63
2019-06-10T08:30:39.738Z,988.58
2019-06-10T08:31:38.825Z,988.62
2019-06-10T08:32:38.240Z,988.62
2019-06-10T08:33:39.016Z,988.60
2019-06-10T08:34:38.110Z,988.62
2019-06-10T08:35:47.198Z,988.63
2019-06-10T08:36:39.496Z,988.60
2019-06-10T08:37:38.122Z,988.60
2019-06-10T08:38:38.299Z,988.60
2019-06-10T08:39:38.254Z,988.59
2019-06-10T08:40:38.310Z,988.61
2019-06-10T08:41:38.455Z,988.57
2019-06-10T08:42:38.837Z,988.57
2019-06-10T08:43:38.535Z,988.56
2019-06-10T08:44:38.725Z,988.58
2019-06-10T08:45:37.332Z,988.54
2019-06-10T08:46:37.256Z,988.53
2019-06-10T08:47:37.187Z,988.53
2019-06-10T08:48:37.115Z,988.56
2019-06-10T08:49:37.124Z,988.56
2019-06-10T08:50:37.650Z,988.57
2019-06-10T08:51:37.152Z,988.57
2019-06-10T08:52:51.638Z,988.55
2019-06-10T08:53:37.380Z,988.54
2019-06-10T08:54:38.599Z,988.50
2019-06-10T08:55:37.418Z,988.49
2019-06-10T08:56:38.366Z,988.52
2019-06-10T08:57:38.427Z,988.51
2019-06-10T08:58:38.462Z,988.56
2019-06-10T08:59:38.362Z,988.53
2019-06-10T09:00:37.380Z,988.56
2019-06-10T09:01:36.203Z,988.56
2019-06-10T09:02:36.132Z,988.56
2019-06-10T09:03:36.062Z,988.53
2019-06-10T09:04:36.018Z,988.52
2019-06-10T09:05:35.921Z,988.52
2019-06-10T09:06:35.852Z,988.54
2019-06-10T09:07:35.782Z,988.51
2019-06-10T09:08:35.710Z,988.55
2019-06-10T09:09:35.641Z,988.55
2019-06-10T09:10:35.570Z,988.57
2019-06-10T09:11:35.499Z,988.55
2019-06-10T09:12:36.715Z,988.60
2019-06-10T09:13:35.359Z,988.55
2019-06-10T09:14:35.288Z,988.56
2019-06-10T09:15:35.219Z,988.55
2019-06-10T09:16:35.147Z,988.47
2019-06-10T09:17:35.080Z,988.47
2019-06-10T09:18:35.007Z,988.46
2019-06-10T09:19:34.939Z,988.44
2019-06-10T09:20:34.870Z,988.38
2019-06-10T09:21:34.798Z,988.38
2019-06-10T09:26:45.092Z,988.33
2019-06-10T09:27:46.485Z,988.27
2019-06-10T09:28:47.182Z,988.30
2019-06-10T09:29:47.835Z,988.27
2019-06-10T09:30:47.621Z,988.26
2019-06-10T09:31:46.777Z,988.22
2019-06-10T09:32:48.509Z,988.22
2019-06-10T09:33:49.940Z,988.22
2019-06-10T09:34:48.778Z,988.15
2019-06-10T09:35:46.152Z,988.18
2019-06-10T09:36:46.628Z,988.19
2019-06-10T09:37:48.439Z,988.18
2019-06-10T09:38:48.318Z,988.14
2019-06-10T09:39:49.835Z,988.16
2019-06-10T09:40:47.503Z,988.20
2019-06-10T09:41:50.246Z,988.23
2019-06-10T09:42:48.102Z,988.27
2019-06-10T09:43:46.716Z,988.26
2019-06-10T09:44:45.892Z,988.24
2019-06-10T09:45:45.941Z,988.24
2019-06-10T09:46:46.007Z,988.21
2019-06-10T09:47:45.618Z,988.30
2019-06-10T09:48:47.900Z,988.26
2019-06-10T09:49:45.353Z,988.23
2019-06-10T09:50:48.736Z,988.20
2019-06-10T09:51:45.865Z,988.12
2019-06-10T09:52:47.539Z,988.07
2019-06-10T09:53:50.269Z,988.03
2019-06-10T09:54:45.757Z,988.04
2019-06-10T09:55:44.512Z,988.02
2019-06-10T09:58:00.068Z,988.12
2019-06-10T09:58:58.960Z,988.20
2019-06-10T09:59:58.891Z,988.18
2019-06-10T10:01:03.224Z,988.21
2019-06-10T10:02:02.720Z,988.22
2019-06-10T10:02:58.681Z,988.22
2019-06-10T10:04:00.525Z,988.16
2019-06-10T10:04:58.797Z,988.15
2019-06-10T10:06:09.794Z,988.06
2019-06-10T10:06:58.401Z,988.01
2019-06-10T10:07:58.332Z,987.95
2019-06-10T10:08:58.641Z,987.93
2019-06-10T10:09:58.194Z,987.87
2019-06-10T10:10:59.146Z,987.84
2019-06-10T10:11:58.055Z,987.77
2019-06-10T10:12:57.984Z,987.70
2019-06-10T10:13:57.922Z,987.67
2019-06-10T10:14:57.847Z,987.62
2019-06-10T10:15:57.775Z,987.58
2019-06-10T10:22:18.759Z,987.38
2019-06-10T10:23:18.690Z,987.39
2019-06-10T10:24:18.207Z,987.43
2019-06-10T10:27:09.621Z,987.68
2019-06-10T10:31:26.154Z,987.60
2019-06-10T10:32:26.084Z,987.74
2019-06-10T10:33:29.928Z,987.69
2019-06-10T10:34:25.942Z,987.64
2019-06-10T10:35:25.873Z,987.61
2019-06-10T10:40:12.303Z,987.56
2019-06-10T10:42:16.415Z,987.61
2019-06-10T10:43:25.441Z,987.57
2019-06-10T10:44:16.274Z,987.62
2019-06-10T10:45:16.202Z,987.63
2019-06-10T10:46:16.201Z,987.62
2019-06-10T10:47:16.064Z,987.60
2019-06-10T10:48:15.993Z,987.53
2019-06-10T10:49:15.924Z,987.50
2019-06-10T10:50:15.853Z,987.44
2019-06-10T10:51:15.785Z,987.45
2019-06-10T10:52:15.716Z,987.40
2019-06-10T10:53:15.643Z,987.42
2019-06-10T10:54:27.895Z,987.49
2019-06-10T10:55:15.505Z,987.50
2019-06-10T10:56:15.444Z,987.51
2019-06-10T10:57:15.366Z,987.50
2019-06-10T10:58:15.296Z,987.52
2019-06-10T10:59:15.227Z,987.43
2019-06-10T11:00:15.158Z,987.43
2019-06-10T11:01:16.363Z,987.49
2019-06-10T11:02:15.034Z,987.47
2019-06-10T11:03:14.950Z,987.50
2019-06-10T11:04:14.881Z,987.44
2019-06-10T11:05:14.815Z,987.43
2019-06-10T11:06:14.745Z,987.43
2019-06-10T11:07:14.675Z,987.33
2019-06-10T11:09:02.102Z,987.25
2019-06-10T11:10:03.887Z,987.21
2019-06-10T11:11:05.066Z,987.23
2019-06-10T11:12:02.894Z,987.29
2019-06-10T11:13:02.377Z,987.30
2019-06-10T11:14:03.495Z,987.37
2019-06-10T11:15:04.927Z,987.44
2019-06-10T11:16:03.508Z,987.47
2019-06-10T11:17:02.879Z,987.44
2019-06-10T11:19:04.062Z,987.50
2019-06-10T11:20:04.001Z,987.53
2019-06-10T11:21:05.147Z,987.48
2019-06-10T11:22:03.895Z,987.50
2019-06-10T11:23:06.615Z,987.40
2019-06-10T11:24:04.823Z,987.38
2019-06-10T11:25:03.657Z,987.30
2019-06-10T11:26:03.606Z,987.30
2019-06-10T11:27:03.524Z,987.32
2019-06-10T11:28:04.227Z,987.37
2019-06-10T11:29:03.385Z,987.35
2019-06-10T11:30:03.319Z,987.37
2019-06-10T11:31:03.965Z,987.30
2019-06-10T11:32:03.252Z,987.28
2019-06-10T11:33:03.461Z,987.30
2019-06-10T11:34:03.286Z,987.31
2019-06-10T11:35:03.029Z,987.16
2019-06-10T11:36:03.047Z,987.04
2019-06-10T11:37:02.843Z,986.83
2019-06-10T11:38:52.932Z,986.46
2019-06-10T11:39:50.273Z,986.33
2019-06-10T11:40:52.274Z,986.16
2019-06-10T11:41:52.479Z,986.02
2019-06-10T11:42:50.496Z,985.86
2019-06-10T11:43:52.938Z,985.87
2019-06-10T11:44:51.243Z,985.81
2019-06-10T11:45:55.098Z,985.78
2019-06-10T11:46:51.843Z,985.73
2019-06-10T11:47:50.899Z,985.70
2019-06-10T11:48:49.609Z,985.64
2019-06-10T11:49:52.293Z,985.61
2019-06-10T11:50:49.442Z,985.70
2019-06-10T11:51:49.372Z,985.71
2019-06-10T11:52:49.694Z,985.74
2019-06-10T11:54:53.730Z,985.90
2019-06-10T11:55:42.408Z,986.18
2019-06-10T11:56:42.172Z,986.36
2019-06-10T11:57:42.445Z,986.52
2019-06-10T11:58:42.544Z,986.77
2019-06-10T11:59:43.451Z,987.10
2019-06-10T12:00:44.004Z,987.26
2019-06-10T12:03:36.604Z,987.35
2019-06-10T12:04:33.638Z,987.99
2019-06-10T12:05:33.571Z,988.00
2019-06-10T12:06:34.124Z,987.47
2019-06-10T12:07:33.408Z,987.55
2019-06-10T12:08:33.343Z,987.78
2019-06-10T12:09:33.559Z,987.85
2019-06-10T12:10:33.251Z,988.16
2019-06-10T12:11:34.376Z,988.03
2019-06-10T12:12:33.930Z,987.92
2019-06-10T12:13:34.476Z,988.03
2019-06-10T12:14:33.785Z,988.07
2019-06-10T12:16:12.656Z,987.30
2019-06-10T12:17:15.693Z,987.36
2019-06-10T12:17:43.165Z,987.66
2019-06-10T12:18:33.229Z,987.38
2019-06-10T12:19:34.109Z,987.27
2019-06-10T12:20:33.376Z,987.68
2019-06-10T12:21:33.188Z,987.44
2019-06-10T12:22:33.058Z,987.12
2019-06-10T12:23:33.723Z,986.97
2019-06-10T12:24:33.145Z,986.91
2019-06-10T12:25:38.778Z,986.89
2019-06-10T12:26:33.362Z,986.94
2019-06-10T12:27:32.830Z,986.88
2019-06-10T12:28:32.674Z,986.88
2019-06-10T12:29:31.992Z,987.02
2019-06-10T12:30:34.419Z,986.89
2019-06-10T12:31:34.528Z,987.01
2019-06-10T12:32:33.139Z,987.08
2019-06-10T12:33:33.647Z,987.17
2019-06-10T12:34:33.275Z,987.29
2019-06-10T12:35:33.310Z,987.64
2019-06-10T12:36:31.543Z,987.88
2019-06-10T12:37:33.645Z,987.34
2019-06-10T12:38:33.442Z,987.74
2019-06-10T12:39:31.351Z,987.82
2019-06-10T12:40:31.286Z,987.78
2019-06-10T12:41:33.180Z,987.69
2019-06-10T12:42:32.845Z,987.49
2019-06-10T12:43:32.592Z,987.17
2019-06-10T12:44:33.541Z,986.81
2019-06-10T12:45:32.611Z,986.95
2019-06-10T12:46:32.702Z,986.84
2019-06-10T12:47:33.167Z,986.97
2019-06-10T12:48:33.204Z,987.34
2019-06-10T12:49:32.069Z,987.00
2019-06-10T12:50:30.663Z,986.81
2019-06-10T12:51:32.682Z,986.60
2019-06-10T12:52:32.437Z,986.49
2019-06-10T12:53:32.587Z,986.39
2019-06-10T12:54:32.538Z,986.39
2019-06-10T12:55:40.180Z,986.40
2019-06-10T12:58:30.173Z,986.32
2019-06-10T12:59:32.266Z,986.35